sensor_id;sensor_type;location;lat;lon;timestamp;temperature;humidity
7720;DHT22;3902;49.474;8.616;2023-07-13T00:00:25;23.40;95.30
7720;DHT22;3902;49.474;8.616;2023-07-13T00:02:51;23.40;95.40
7720;DHT22;3902;49.474;8.616;2023-07-13T00:05:19;23.30;95.20
7720;DHT22;3902;49.474;8.616;2023-07-13T00:07:45;23.30;95.40
7720;DHT22;3902;49.474;8.616;2023-07-13T00:10:12;23.30;95.70
7720;DHT22;3902;49.474;8.616;2023-07-13T00:12:37;23.30;95.80
7720;DHT22;3902;49.474;8.616;2023-07-13T00:15:07;23.30;96.00
7720;DHT22;3902;49.474;8.616;2023-07-13T00:17:34;23.30;95.30
7720;DHT22;3902;49.474;8.616;2023-07-13T00:20:00;23.30;95.00
7720;DHT22;3902;49.474;8.616;2023-07-13T00:22:26;23.20;94.50
7720;DHT22;3902;49.474;8.616;2023-07-13T00:24:52;23.30;95.10
7720;DHT22;3902;49.474;8.616;2023-07-13T00:27:18;23.30;95.00
7720;DHT22;3902;49.474;8.616;2023-07-13T00:29:44;23.30;94.70
7720;DHT22;3902;49.474;8.616;2023-07-13T00:32:10;23.30;95.10
7720;DHT22;3902;49.474;8.616;2023-07-13T00:34:37;23.20;95.20
7720;DHT22;3902;49.474;8.616;2023-07-13T00:37:03;23.20;95.00
7720;DHT22;3902;49.474;8.616;2023-07-13T00:39:29;23.20;94.90
7720;DHT22;3902;49.474;8.616;2023-07-13T00:41:54;23.20;94.90
7720;DHT22;3902;49.474;8.616;2023-07-13T00:44:20;23.10;94.90
7720;DHT22;3902;49.474;8.616;2023-07-13T00:46:48;23.10;95.00
7720;DHT22;3902;49.474;8.616;2023-07-13T00:49:19;23.00;95.20
7720;DHT22;3902;49.474;8.616;2023-07-13T00:51:50;22.90;95.40
7720;DHT22;3902;49.474;8.616;2023-07-13T00:54:28;22.90;95.60
7720;DHT22;3902;49.474;8.616;2023-07-13T00:57:11;22.90;95.40
7720;DHT22;3902;49.474;8.616;2023-07-13T00:59:40;22.80;95.60
7720;DHT22;3902;49.474;8.616;2023-07-13T01:02:07;22.70;95.60
7720;DHT22;3902;49.474;8.616;2023-07-13T01:04:32;22.70;95.80
7720;DHT22;3902;49.474;8.616;2023-07-13T01:06:58;22.70;95.60
7720;DHT22;3902;49.474;8.616;2023-07-13T01:09:26;22.60;95.70
7720;DHT22;3902;49.474;8.616;2023-07-13T01:11:52;22.70;95.90
7720;DHT22;3902;49.474;8.616;2023-07-13T01:14:17;22.60;96.10
7720;DHT22;3902;49.474;8.616;2023-07-13T01:16:45;22.50;96.30
7720;DHT22;3902;49.474;8.616;2023-07-13T01:19:36;22.50;96.40
7720;DHT22;3902;49.474;8.616;2023-07-13T01:22:06;22.40;96.50
7720;DHT22;3902;49.474;8.616;2023-07-13T01:24:35;22.30;96.40
7720;DHT22;3902;49.474;8.616;2023-07-13T01:27:02;22.30;96.60
7720;DHT22;3902;49.474;8.616;2023-07-13T01:29:27;22.20;97.00
7720;DHT22;3902;49.474;8.616;2023-07-13T01:31:53;22.10;97.10
7720;DHT22;3902;49.474;8.616;2023-07-13T01:34:18;22.10;97.30
7720;DHT22;3902;49.474;8.616;2023-07-13T01:36:44;22.10;97.30
7720;DHT22;3902;49.474;8.616;2023-07-13T01:39:09;22.00;97.40
7720;DHT22;3902;49.474;8.616;2023-07-13T01:41:35;22.00;97.50
7720;DHT22;3902;49.474;8.616;2023-07-13T01:44:00;22.00;97.50
7720;DHT22;3902;49.474;8.616;2023-07-13T01:46:26;21.90;97.60
7720;DHT22;3902;49.474;8.616;2023-07-13T01:48:51;21.90;97.70
7720;DHT22;3902;49.474;8.616;2023-07-13T01:51:18;21.90;97.90
7720;DHT22;3902;49.474;8.616;2023-07-13T01:53:43;21.80;98.00
7720;DHT22;3902;49.474;8.616;2023-07-13T01:56:09;21.70;98.00
7720;DHT22;3902;49.474;8.616;2023-07-13T01:58:34;21.60;97.90
7720;DHT22;3902;49.474;8.616;2023-07-13T02:01:00;21.60;98.10
7720;DHT22;3902;49.474;8.616;2023-07-13T02:03:25;21.60;98.20
7720;DHT22;3902;49.474;8.616;2023-07-13T02:05:51;21.50;98.10
7720;DHT22;3902;49.474;8.616;2023-07-13T02:08:16;21.40;98.20
7720;DHT22;3902;49.474;8.616;2023-07-13T02:10:42;21.50;98.70
7720;DHT22;3902;49.474;8.616;2023-07-13T02:13:08;21.40;98.60
7720;DHT22;3902;49.474;8.616;2023-07-13T02:15:33;21.40;98.70
7720;DHT22;3902;49.474;8.616;2023-07-13T02:17:59;21.30;98.90
7720;DHT22;3902;49.474;8.616;2023-07-13T02:20:25;21.30;98.90
7720;DHT22;3902;49.474;8.616;2023-07-13T02:22:51;21.30;98.90
7720;DHT22;3902;49.474;8.616;2023-07-13T02:25:17;21.20;99.00
7720;DHT22;3902;49.474;8.616;2023-07-13T02:27:42;21.20;99.10
7720;DHT22;3902;49.474;8.616;2023-07-13T02:30:09;21.20;99.20
7720;DHT22;3902;49.474;8.616;2023-07-13T02:32:35;21.10;99.10
7720;DHT22;3902;49.474;8.616;2023-07-13T02:35:01;21.10;99.30
7720;DHT22;3902;49.474;8.616;2023-07-13T02:37:27;21.10;99.30
7720;DHT22;3902;49.474;8.616;2023-07-13T02:39:52;21.10;99.40
7720;DHT22;3902;49.474;8.616;2023-07-13T02:42:18;21.10;99.60
7720;DHT22;3902;49.474;8.616;2023-07-13T02:44:43;21.00;99.50
7720;DHT22;3902;49.474;8.616;2023-07-13T02:47:09;21.00;99.40
7720;DHT22;3902;49.474;8.616;2023-07-13T02:49:34;20.90;99.80
7720;DHT22;3902;49.474;8.616;2023-07-13T02:52:00;20.90;99.70
7720;DHT22;3902;49.474;8.616;2023-07-13T02:54:25;20.90;99.70
7720;DHT22;3902;49.474;8.616;2023-07-13T02:56:51;20.90;99.90
7720;DHT22;3902;49.474;8.616;2023-07-13T02:59:16;20.80;99.90
7720;DHT22;3902;49.474;8.616;2023-07-13T03:01:42;20.70;99.90
7720;DHT22;3902;49.474;8.616;2023-07-13T03:04:08;20.70;99.90
7720;DHT22;3902;49.474;8.616;2023-07-13T03:06:33;20.70;99.90
7720;DHT22;3902;49.474;8.616;2023-07-13T03:08:59;20.70;99.90
7720;DHT22;3902;49.474;8.616;2023-07-13T03:11:26;20.60;99.90
7720;DHT22;3902;49.474;8.616;2023-07-13T03:13:51;20.50;99.90
7720;DHT22;3902;49.474;8.616;2023-07-13T03:16:17;20.50;99.90
7720;DHT22;3902;49.474;8.616;2023-07-13T03:18:42;20.50;99.90
7720;DHT22;3902;49.474;8.616;2023-07-13T03:21:08;20.40;99.90
7720;DHT22;3902;49.474;8.616;2023-07-13T03:23:34;20.40;99.90
7720;DHT22;3902;49.474;8.616;2023-07-13T03:26:11;20.40;99.90
7720;DHT22;3902;49.474;8.616;2023-07-13T03:28:38;20.40;99.90
7720;DHT22;3902;49.474;8.616;2023-07-13T03:31:09;20.30;99.90
7720;DHT22;3902;49.474;8.616;2023-07-13T03:33:36;20.40;99.90
7720;DHT22;3902;49.474;8.616;2023-07-13T03:36:03;20.30;99.90
7720;DHT22;3902;49.474;8.616;2023-07-13T03:38:28;20.40;99.90
7720;DHT22;3902;49.474;8.616;2023-07-13T03:40:54;20.40;99.90
7720;DHT22;3902;49.474;8.616;2023-07-13T03:43:19;20.30;99.90
7720;DHT22;3902;49.474;8.616;2023-07-13T03:45:46;20.30;99.90
7720;DHT22;3902;49.474;8.616;2023-07-13T03:48:12;20.30;99.90
7720;DHT22;3902;49.474;8.616;2023-07-13T03:50:38;20.30;99.90
7720;DHT22;3902;49.474;8.616;2023-07-13T03:53:04;20.30;99.90
7720;DHT22;3902;49.474;8.616;2023-07-13T03:55:30;20.30;99.90
7720;DHT22;3902;49.474;8.616;2023-07-13T03:58:22;20.20;99.90
7720;DHT22;3902;49.474;8.616;2023-07-13T04:00:45;20.20;99.90
7720;DHT22;3902;49.474;8.616;2023-07-13T04:03:11;20.20;99.90
7720;DHT22;3902;49.474;8.616;2023-07-13T04:05:36;20.10;99.90
7720;DHT22;3902;49.474;8.616;2023-07-13T04:08:02;20.10;99.90
7720;DHT22;3902;49.474;8.616;2023-07-13T04:10:28;20.00;99.90
7720;DHT22;3902;49.474;8.616;2023-07-13T04:12:53;20.00;99.90
7720;DHT22;3902;49.474;8.616;2023-07-13T04:15:19;20.00;99.90
7720;DHT22;3902;49.474;8.616;2023-07-13T04:17:44;20.00;99.90
7720;DHT22;3902;49.474;8.616;2023-07-13T04:20:10;20.00;99.90
7720;DHT22;3902;49.474;8.616;2023-07-13T04:22:35;19.90;99.90
7720;DHT22;3902;49.474;8.616;2023-07-13T04:25:01;19.90;99.90
7720;DHT22;3902;49.474;8.616;2023-07-13T04:27:27;19.90;99.90
7720;DHT22;3902;49.474;8.616;2023-07-13T04:29:53;19.90;99.90
7720;DHT22;3902;49.474;8.616;2023-07-13T04:32:19;19.90;99.90
7720;DHT22;3902;49.474;8.616;2023-07-13T04:34:44;19.90;99.90
7720;DHT22;3902;49.474;8.616;2023-07-13T04:37:10;19.90;99.90
7720;DHT22;3902;49.474;8.616;2023-07-13T04:39:36;19.90;99.90
7720;DHT22;3902;49.474;8.616;2023-07-13T04:42:02;19.90;99.90
7720;DHT22;3902;49.474;8.616;2023-07-13T04:44:27;19.90;99.90
7720;DHT22;3902;49.474;8.616;2023-07-13T04:46:53;19.90;99.90
7720;DHT22;3902;49.474;8.616;2023-07-13T04:49:18;19.90;99.90
7720;DHT22;3902;49.474;8.616;2023-07-13T04:51:44;19.90;99.90
7720;DHT22;3902;49.474;8.616;2023-07-13T04:54:09;19.90;99.90
7720;DHT22;3902;49.474;8.616;2023-07-13T04:56:35;19.90;99.90
7720;DHT22;3902;49.474;8.616;2023-07-13T04:59:00;20.00;99.90
7720;DHT22;3902;49.474;8.616;2023-07-13T05:01:26;20.00;99.90
7720;DHT22;3902;49.474;8.616;2023-07-13T05:03:52;20.00;99.90
7720;DHT22;3902;49.474;8.616;2023-07-13T05:06:17;20.00;99.90
7720;DHT22;3902;49.474;8.616;2023-07-13T05:08:43;20.00;99.90
7720;DHT22;3902;49.474;8.616;2023-07-13T05:11:08;20.00;99.90
7720;DHT22;3902;49.474;8.616;2023-07-13T05:13:34;20.00;99.90
7720;DHT22;3902;49.474;8.616;2023-07-13T05:16:02;20.00;99.90
7720;DHT22;3902;49.474;8.616;2023-07-13T05:18:29;20.00;99.90
7720;DHT22;3902;49.474;8.616;2023-07-13T05:21:00;20.00;99.90
7720;DHT22;3902;49.474;8.616;2023-07-13T05:23:26;20.10;99.90
7720;DHT22;3902;49.474;8.616;2023-07-13T05:25:52;20.10;99.90
7720;DHT22;3902;49.474;8.616;2023-07-13T05:28:18;20.10;99.90
7720;DHT22;3902;49.474;8.616;2023-07-13T05:30:50;20.10;99.90
7720;DHT22;3902;49.474;8.616;2023-07-13T05:33:16;20.10;99.90
7720;DHT22;3902;49.474;8.616;2023-07-13T05:35:41;20.10;99.90
7720;DHT22;3902;49.474;8.616;2023-07-13T05:38:07;20.20;99.90
7720;DHT22;3902;49.474;8.616;2023-07-13T05:40:33;20.20;99.90
7720;DHT22;3902;49.474;8.616;2023-07-13T05:42:58;20.30;99.90
7720;DHT22;3902;49.474;8.616;2023-07-13T05:45:24;20.30;99.90
7720;DHT22;3902;49.474;8.616;2023-07-13T05:47:51;20.30;99.90
7720;DHT22;3902;49.474;8.616;2023-07-13T05:50:16;20.30;99.90
7720;DHT22;3902;49.474;8.616;2023-07-13T05:52:42;20.30;99.90
7720;DHT22;3902;49.474;8.616;2023-07-13T05:55:08;20.40;99.90
7720;DHT22;3902;49.474;8.616;2023-07-13T05:57:33;20.40;99.90
7720;DHT22;3902;49.474;8.616;2023-07-13T05:59:59;20.40;99.90
7720;DHT22;3902;49.474;8.616;2023-07-13T06:02:24;20.50;99.90
7720;DHT22;3902;49.474;8.616;2023-07-13T06:04:51;20.50;99.90
7720;DHT22;3902;49.474;8.616;2023-07-13T06:07:17;20.50;99.90
7720;DHT22;3902;49.474;8.616;2023-07-13T06:09:43;20.50;99.90
7720;DHT22;3902;49.474;8.616;2023-07-13T06:12:08;20.50;99.90
7720;DHT22;3902;49.474;8.616;2023-07-13T06:14:34;20.60;99.90
7720;DHT22;3902;49.474;8.616;2023-07-13T06:17:00;20.60;99.90
7720;DHT22;3902;49.474;8.616;2023-07-13T06:19:25;20.60;99.90
7720;DHT22;3902;49.474;8.616;2023-07-13T06:21:51;20.60;99.90
7720;DHT22;3902;49.474;8.616;2023-07-13T06:24:16;20.60;99.90
7720;DHT22;3902;49.474;8.616;2023-07-13T06:26:42;20.60;99.90
7720;DHT22;3902;49.474;8.616;2023-07-13T06:29:08;20.60;99.90
7720;DHT22;3902;49.474;8.616;2023-07-13T06:31:33;20.70;99.90
7720;DHT22;3902;49.474;8.616;2023-07-13T06:33:59;20.70;99.90
7720;DHT22;3902;49.474;8.616;2023-07-13T06:36:24;20.70;99.90
7720;DHT22;3902;49.474;8.616;2023-07-13T06:38:50;20.70;99.90
7720;DHT22;3902;49.474;8.616;2023-07-13T06:41:15;20.60;99.90
7720;DHT22;3902;49.474;8.616;2023-07-13T06:43:41;20.70;99.90
7720;DHT22;3902;49.474;8.616;2023-07-13T06:46:07;20.70;99.90
7720;DHT22;3902;49.474;8.616;2023-07-13T06:48:33;20.70;99.90
7720;DHT22;3902;49.474;8.616;2023-07-13T06:50:58;20.70;99.90
7720;DHT22;3902;49.474;8.616;2023-07-13T06:53:24;20.80;99.90
7720;DHT22;3902;49.474;8.616;2023-07-13T06:55:50;20.80;99.90
7720;DHT22;3902;49.474;8.616;2023-07-13T06:58:18;20.90;99.90
7720;DHT22;3902;49.474;8.616;2023-07-13T07:00:44;20.90;99.90
7720;DHT22;3902;49.474;8.616;2023-07-13T07:03:09;20.90;99.90
7720;DHT22;3902;49.474;8.616;2023-07-13T07:05:35;20.90;99.90
7720;DHT22;3902;49.474;8.616;2023-07-13T07:08:00;21.00;99.90
7720;DHT22;3902;49.474;8.616;2023-07-13T07:10:28;21.00;99.90
7720;DHT22;3902;49.474;8.616;2023-07-13T07:12:54;21.00;99.90
7720;DHT22;3902;49.474;8.616;2023-07-13T07:15:20;21.10;99.90
7720;DHT22;3902;49.474;8.616;2023-07-13T07:17:45;21.10;99.90
7720;DHT22;3902;49.474;8.616;2023-07-13T07:20:12;21.20;99.90
7720;DHT22;3902;49.474;8.616;2023-07-13T07:22:37;21.20;99.90
7720;DHT22;3902;49.474;8.616;2023-07-13T07:25:03;21.20;99.90
7720;DHT22;3902;49.474;8.616;2023-07-13T07:27:29;21.20;99.90
7720;DHT22;3902;49.474;8.616;2023-07-13T07:29:54;21.20;99.90
7720;DHT22;3902;49.474;8.616;2023-07-13T07:32:20;21.30;99.50
7720;DHT22;3902;49.474;8.616;2023-07-13T07:34:46;21.30;99.50
7720;DHT22;3902;49.474;8.616;2023-07-13T07:37:13;21.20;99.40
7720;DHT22;3902;49.474;8.616;2023-07-13T07:39:39;21.30;99.60
7720;DHT22;3902;49.474;8.616;2023-07-13T07:42:05;21.30;99.40
7720;DHT22;3902;49.474;8.616;2023-07-13T07:44:31;21.40;99.60
7720;DHT22;3902;49.474;8.616;2023-07-13T07:46:57;21.40;99.30
7720;DHT22;3902;49.474;8.616;2023-07-13T07:49:23;21.50;99.00
7720;DHT22;3902;49.474;8.616;2023-07-13T07:51:48;21.50;98.70
7720;DHT22;3902;49.474;8.616;2023-07-13T07:54:14;21.60;99.10
7720;DHT22;3902;49.474;8.616;2023-07-13T07:56:40;21.60;98.90
7720;DHT22;3902;49.474;8.616;2023-07-13T07:59:06;21.70;98.50
7720;DHT22;3902;49.474;8.616;2023-07-13T08:01:31;21.70;98.20
7720;DHT22;3902;49.474;8.616;2023-07-13T08:03:57;21.70;98.50
7720;DHT22;3902;49.474;8.616;2023-07-13T08:06:23;21.80;98.50
7720;DHT22;3902;49.474;8.616;2023-07-13T08:08:49;21.80;98.80
7720;DHT22;3902;49.474;8.616;2023-07-13T08:11:15;21.90;98.80
7720;DHT22;3902;49.474;8.616;2023-07-13T08:13:41;21.90;98.70
7720;DHT22;3902;49.474;8.616;2023-07-13T08:16:07;22.00;98.30
7720;DHT22;3902;49.474;8.616;2023-07-13T08:18:32;22.00;98.70
7720;DHT22;3902;49.474;8.616;2023-07-13T08:21:06;22.10;98.80
7720;DHT22;3902;49.474;8.616;2023-07-13T08:23:31;22.10;98.90
7720;DHT22;3902;49.474;8.616;2023-07-13T08:25:57;22.20;98.80
7720;DHT22;3902;49.474;8.616;2023-07-13T08:28:23;22.20;97.90
7720;DHT22;3902;49.474;8.616;2023-07-13T08:30:49;22.30;97.60
7720;DHT22;3902;49.474;8.616;2023-07-13T08:33:16;22.40;97.20
7720;DHT22;3902;49.474;8.616;2023-07-13T08:35:42;22.30;96.60
7720;DHT22;3902;49.474;8.616;2023-07-13T08:38:07;22.30;96.40
7720;DHT22;3902;49.474;8.616;2023-07-13T08:40:34;22.30;96.90
7720;DHT22;3902;49.474;8.616;2023-07-13T08:43:00;22.40;96.70
7720;DHT22;3902;49.474;8.616;2023-07-13T08:45:52;22.40;97.20
7720;DHT22;3902;49.474;8.616;2023-07-13T08:48:28;22.50;97.80
7720;DHT22;3902;49.474;8.616;2023-07-13T08:51:15;22.50;96.50
7720;DHT22;3902;49.474;8.616;2023-07-13T08:53:48;22.60;96.90
7720;DHT22;3902;49.474;8.616;2023-07-13T08:56:21;22.60;96.20
7720;DHT22;3902;49.474;8.616;2023-07-13T08:58:49;22.70;96.70
7720;DHT22;3902;49.474;8.616;2023-07-13T09:01:19;22.80;97.00
7720;DHT22;3902;49.474;8.616;2023-07-13T09:04:02;22.90;97.50
7720;DHT22;3902;49.474;8.616;2023-07-13T09:06:49;22.90;96.20
7720;DHT22;3902;49.474;8.616;2023-07-13T09:09:59;23.10;96.00
7720;DHT22;3902;49.474;8.616;2023-07-13T09:15:31;23.10;95.40
7720;DHT22;3902;49.474;8.616;2023-07-13T09:18:04;23.20;95.60
7720;DHT22;3902;49.474;8.616;2023-07-13T09:23:09;23.30;95.00
7720;DHT22;3902;49.474;8.616;2023-07-13T09:25:37;23.20;95.20
7720;DHT22;3902;49.474;8.616;2023-07-13T09:30:46;23.30;95.40
7720;DHT22;3902;49.474;8.616;2023-07-13T09:33:17;23.20;94.70
7720;DHT22;3902;49.474;8.616;2023-07-13T09:35:42;23.30;94.90
7720;DHT22;3902;49.474;8.616;2023-07-13T09:38:17;23.30;95.30
7720;DHT22;3902;49.474;8.616;2023-07-13T09:40:51;23.40;95.30
7720;DHT22;3902;49.474;8.616;2023-07-13T09:43:18;23.50;95.50
7720;DHT22;3902;49.474;8.616;2023-07-13T09:45:46;23.60;95.50
7720;DHT22;3902;49.474;8.616;2023-07-13T09:48:15;23.60;94.60
7720;DHT22;3902;49.474;8.616;2023-07-13T09:50:41;23.70;95.10
7720;DHT22;3902;49.474;8.616;2023-07-13T09:53:19;23.80;95.00
7720;DHT22;3902;49.474;8.616;2023-07-13T09:55:47;23.80;94.70
7720;DHT22;3902;49.474;8.616;2023-07-13T09:58:21;23.80;94.70
7720;DHT22;3902;49.474;8.616;2023-07-13T10:01:02;23.80;95.00
7720;DHT22;3902;49.474;8.616;2023-07-13T10:03:33;23.80;94.70
7720;DHT22;3902;49.474;8.616;2023-07-13T10:06:21;23.90;94.80
7720;DHT22;3902;49.474;8.616;2023-07-13T10:08:51;23.90;94.90
7720;DHT22;3902;49.474;8.616;2023-07-13T10:11:28;24.00;94.50
7720;DHT22;3902;49.474;8.616;2023-07-13T10:14:02;24.10;95.20
7720;DHT22;3902;49.474;8.616;2023-07-13T10:16:35;24.10;94.60
7720;DHT22;3902;49.474;8.616;2023-07-13T10:19:17;24.20;95.00
7720;DHT22;3902;49.474;8.616;2023-07-13T10:22:14;24.10;94.30
7720;DHT22;3902;49.474;8.616;2023-07-13T10:24:44;24.00;94.30
7720;DHT22;3902;49.474;8.616;2023-07-13T10:27:17;24.10;94.70
7720;DHT22;3902;49.474;8.616;2023-07-13T10:29:50;24.10;94.80
7720;DHT22;3902;49.474;8.616;2023-07-13T10:32:20;24.20;94.70
7720;DHT22;3902;49.474;8.616;2023-07-13T10:34:47;24.30;95.20
7720;DHT22;3902;49.474;8.616;2023-07-13T10:37:27;24.30;93.30
7720;DHT22;3902;49.474;8.616;2023-07-13T10:39:55;24.30;93.10
7720;DHT22;3902;49.474;8.616;2023-07-13T10:42:38;24.20;92.80
7720;DHT22;3902;49.474;8.616;2023-07-13T10:45:15;24.20;92.40
7720;DHT22;3902;49.474;8.616;2023-07-13T10:47:43;24.10;92.60
7720;DHT22;3902;49.474;8.616;2023-07-13T10:50:17;24.00;92.40
7720;DHT22;3902;49.474;8.616;2023-07-13T10:52:52;24.00;92.60
7720;DHT22;3902;49.474;8.616;2023-07-13T10:55:34;24.00;92.70
7720;DHT22;3902;49.474;8.616;2023-07-13T10:58:03;24.20;92.40
7720;DHT22;3902;49.474;8.616;2023-07-13T11:00:44;24.30;93.10
7720;DHT22;3902;49.474;8.616;2023-07-13T11:03:13;24.50;92.60
7720;DHT22;3902;49.474;8.616;2023-07-13T11:05:40;24.60;91.60
7720;DHT22;3902;49.474;8.616;2023-07-13T11:08:32;24.70;91.50
7720;DHT22;3902;49.474;8.616;2023-07-13T11:10:58;24.70;90.30
7720;DHT22;3902;49.474;8.616;2023-07-13T11:13:55;24.80;90.00
7720;DHT22;3902;49.474;8.616;2023-07-13T11:19:08;24.80;89.90
7720;DHT22;3902;49.474;8.616;2023-07-13T11:24:48;24.90;88.40
7720;DHT22;3902;49.474;8.616;2023-07-13T11:27:22;25.00;87.20
7720;DHT22;3902;49.474;8.616;2023-07-13T11:29:48;24.90;86.30
7720;DHT22;3902;49.474;8.616;2023-07-13T11:32:24;24.90;87.10
7720;DHT22;3902;49.474;8.616;2023-07-13T11:34:53;25.00;86.50
7720;DHT22;3902;49.474;8.616;2023-07-13T11:37:19;25.20;85.00
7720;DHT22;3902;49.474;8.616;2023-07-13T11:39:46;25.30;86.80
7720;DHT22;3902;49.474;8.616;2023-07-13T11:42:16;25.70;86.70
7720;DHT22;3902;49.474;8.616;2023-07-13T11:44:46;25.80;84.40
7720;DHT22;3902;49.474;8.616;2023-07-13T11:47:18;26.10;86.10
7720;DHT22;3902;49.474;8.616;2023-07-13T11:49:49;26.20;86.00
7720;DHT22;3902;49.474;8.616;2023-07-13T11:52:21;26.30;85.30
7720;DHT22;3902;49.474;8.616;2023-07-13T11:54:51;26.10;85.20
7720;DHT22;3902;49.474;8.616;2023-07-13T11:59:49;25.90;84.00
7720;DHT22;3902;49.474;8.616;2023-07-13T12:02:25;25.90;85.10
7720;DHT22;3902;49.474;8.616;2023-07-13T12:04:52;25.90;84.60
7720;DHT22;3902;49.474;8.616;2023-07-13T12:07:19;25.90;84.80
7720;DHT22;3902;49.474;8.616;2023-07-13T12:09:44;26.00;85.60
7720;DHT22;3902;49.474;8.616;2023-07-13T12:12:16;26.00;84.40
7720;DHT22;3902;49.474;8.616;2023-07-13T12:14:43;26.00;85.10
7720;DHT22;3902;49.474;8.616;2023-07-13T12:17:15;26.10;83.40
7720;DHT22;3902;49.474;8.616;2023-07-13T12:19:41;26.20;84.00
7720;DHT22;3902;49.474;8.616;2023-07-13T12:22:12;26.50;82.20
7720;DHT22;3902;49.474;8.616;2023-07-13T12:24:40;26.80;81.50
7720;DHT22;3902;49.474;8.616;2023-07-13T12:27:06;26.70;77.90
7720;DHT22;3902;49.474;8.616;2023-07-13T12:29:59;26.60;78.50
7720;DHT22;3902;49.474;8.616;2023-07-13T12:32:26;26.60;77.50
7720;DHT22;3902;49.474;8.616;2023-07-13T12:35:06;26.70;78.30
7720;DHT22;3902;49.474;8.616;2023-07-13T12:37:35;26.90;77.60
7720;DHT22;3902;49.474;8.616;2023-07-13T12:40:01;27.00;77.80
7720;DHT22;3902;49.474;8.616;2023-07-13T12:42:32;26.80;77.50
7720;DHT22;3902;49.474;8.616;2023-07-13T12:45:25;26.80;78.80
7720;DHT22;3902;49.474;8.616;2023-07-13T12:47:57;26.80;80.90
7720;DHT22;3902;49.474;8.616;2023-07-13T12:50:30;26.70;82.20
7720;DHT22;3902;49.474;8.616;2023-07-13T12:53:02;26.70;81.30
7720;DHT22;3902;49.474;8.616;2023-07-13T12:55:47;26.50;82.40
7720;DHT22;3902;49.474;8.616;2023-07-13T12:58:18;26.40;81.60
7720;DHT22;3902;49.474;8.616;2023-07-13T13:00:49;26.40;80.60
7720;DHT22;3902;49.474;8.616;2023-07-13T13:03:36;26.30;81.20
7720;DHT22;3902;49.474;8.616;2023-07-13T13:06:06;26.10;80.70
7720;DHT22;3902;49.474;8.616;2023-07-13T13:08:35;26.10;81.00
7720;DHT22;3902;49.474;8.616;2023-07-13T13:11:02;26.00;80.90
7720;DHT22;3902;49.474;8.616;2023-07-13T13:13:28;26.00;80.40
7720;DHT22;3902;49.474;8.616;2023-07-13T13:15:54;26.10;79.70
7720;DHT22;3902;49.474;8.616;2023-07-13T13:18:21;26.20;79.40
7720;DHT22;3902;49.474;8.616;2023-07-13T13:20:48;26.40;80.40
7720;DHT22;3902;49.474;8.616;2023-07-13T13:23:15;26.50;80.30
7720;DHT22;3902;49.474;8.616;2023-07-13T13:25:46;26.50;79.90
7720;DHT22;3902;49.474;8.616;2023-07-13T13:28:18;26.50;79.10
7720;DHT22;3902;49.474;8.616;2023-07-13T13:30:45;26.30;80.10
7720;DHT22;3902;49.474;8.616;2023-07-13T13:33:14;26.30;79.60
7720;DHT22;3902;49.474;8.616;2023-07-13T13:35:41;26.10;79.80
7720;DHT22;3902;49.474;8.616;2023-07-13T13:38:14;26.10;80.30
7720;DHT22;3902;49.474;8.616;2023-07-13T13:40:42;26.10;80.40
7720;DHT22;3902;49.474;8.616;2023-07-13T13:43:28;26.10;80.70
7720;DHT22;3902;49.474;8.616;2023-07-13T13:45:57;25.90;80.30
7720;DHT22;3902;49.474;8.616;2023-07-13T13:48:32;25.90;80.30
7720;DHT22;3902;49.474;8.616;2023-07-13T13:51:00;25.90;80.30
7720;DHT22;3902;49.474;8.616;2023-07-13T13:53:26;26.00;79.30
7720;DHT22;3902;49.474;8.616;2023-07-13T13:55:52;25.90;78.80
7720;DHT22;3902;49.474;8.616;2023-07-13T13:58:18;25.90;80.00
7720;DHT22;3902;49.474;8.616;2023-07-13T14:00:44;25.90;80.80
7720;DHT22;3902;49.474;8.616;2023-07-13T14:03:29;26.00;81.00
7720;DHT22;3902;49.474;8.616;2023-07-13T14:05:55;25.90;80.30
7720;DHT22;3902;49.474;8.616;2023-07-13T14:08:22;25.90;80.20
7720;DHT22;3902;49.474;8.616;2023-07-13T14:10:52;26.00;79.60
7720;DHT22;3902;49.474;8.616;2023-07-13T14:13:26;26.00;79.70
7720;DHT22;3902;49.474;8.616;2023-07-13T14:15:53;26.20;80.60
7720;DHT22;3902;49.474;8.616;2023-07-13T14:18:18;26.30;79.80
7720;DHT22;3902;49.474;8.616;2023-07-13T14:20:45;26.20;79.50
7720;DHT22;3902;49.474;8.616;2023-07-13T14:23:13;26.20;80.00
7720;DHT22;3902;49.474;8.616;2023-07-13T14:25:39;26.30;81.10
7720;DHT22;3902;49.474;8.616;2023-07-13T14:28:22;26.10;81.80
7720;DHT22;3902;49.474;8.616;2023-07-13T14:30:49;26.20;82.70
7720;DHT22;3902;49.474;8.616;2023-07-13T14:33:15;26.40;83.10
7720;DHT22;3902;49.474;8.616;2023-07-13T14:35:41;26.50;82.60
7720;DHT22;3902;49.474;8.616;2023-07-13T14:38:18;26.60;82.70
7720;DHT22;3902;49.474;8.616;2023-07-13T14:40:45;26.70;82.00
7720;DHT22;3902;49.474;8.616;2023-07-13T14:43:16;26.70;81.70
7720;DHT22;3902;49.474;8.616;2023-07-13T14:45:48;26.70;82.40
7720;DHT22;3902;49.474;8.616;2023-07-13T14:48:19;26.80;81.70
7720;DHT22;3902;49.474;8.616;2023-07-13T14:50:45;26.80;81.50
7720;DHT22;3902;49.474;8.616;2023-07-13T14:53:13;26.80;82.40
7720;DHT22;3902;49.474;8.616;2023-07-13T14:55:39;26.90;82.90
7720;DHT22;3902;49.474;8.616;2023-07-13T14:58:05;26.80;81.80
7720;DHT22;3902;49.474;8.616;2023-07-13T15:00:31;26.70;81.20
7720;DHT22;3902;49.474;8.616;2023-07-13T15:02:58;26.50;80.80
7720;DHT22;3902;49.474;8.616;2023-07-13T15:05:28;26.40;80.50
7720;DHT22;3902;49.474;8.616;2023-07-13T15:08:00;26.30;80.30
7720;DHT22;3902;49.474;8.616;2023-07-13T15:10:32;26.20;80.30
7720;DHT22;3902;49.474;8.616;2023-07-13T15:13:00;26.30;80.60
7720;DHT22;3902;49.474;8.616;2023-07-13T15:15:31;26.30;81.70
7720;DHT22;3902;49.474;8.616;2023-07-13T15:17:59;26.50;81.80
7720;DHT22;3902;49.474;8.616;2023-07-13T15:20:28;26.60;81.80
7720;DHT22;3902;49.474;8.616;2023-07-13T15:22:54;26.70;81.70
7720;DHT22;3902;49.474;8.616;2023-07-13T15:25:23;26.70;81.70
7720;DHT22;3902;49.474;8.616;2023-07-13T15:27:50;26.80;79.90
7720;DHT22;3902;49.474;8.616;2023-07-13T15:30:16;26.90;81.40
7720;DHT22;3902;49.474;8.616;2023-07-13T15:32:46;27.00;80.00
7720;DHT22;3902;49.474;8.616;2023-07-13T15:35:18;27.20;80.20
7720;DHT22;3902;49.474;8.616;2023-07-13T15:37:44;27.20;78.90
7720;DHT22;3902;49.474;8.616;2023-07-13T15:40:11;27.10;78.50
7720;DHT22;3902;49.474;8.616;2023-07-13T15:42:38;27.10;78.70
7720;DHT22;3902;49.474;8.616;2023-07-13T15:45:04;27.00;79.00
7720;DHT22;3902;49.474;8.616;2023-07-13T15:47:31;26.90;79.80
7720;DHT22;3902;49.474;8.616;2023-07-13T15:49:57;26.90;78.20
7720;DHT22;3902;49.474;8.616;2023-07-13T15:52:23;26.90;78.80
7720;DHT22;3902;49.474;8.616;2023-07-13T15:54:50;26.80;79.10
7720;DHT22;3902;49.474;8.616;2023-07-13T15:57:16;26.80;79.80
7720;DHT22;3902;49.474;8.616;2023-07-13T15:59:44;26.80;79.70
7720;DHT22;3902;49.474;8.616;2023-07-13T16:02:20;26.90;81.10
7720;DHT22;3902;49.474;8.616;2023-07-13T16:04:47;26.90;80.60
7720;DHT22;3902;49.474;8.616;2023-07-13T16:07:15;27.10;80.60
7720;DHT22;3902;49.474;8.616;2023-07-13T16:09:46;27.10;81.40
7720;DHT22;3902;49.474;8.616;2023-07-13T16:12:13;27.10;82.20
7720;DHT22;3902;49.474;8.616;2023-07-13T16:14:40;27.10;80.80
7720;DHT22;3902;49.474;8.616;2023-07-13T16:17:13;27.20;81.90
7720;DHT22;3902;49.474;8.616;2023-07-13T16:19:39;27.20;81.50
7720;DHT22;3902;49.474;8.616;2023-07-13T16:22:08;27.30;81.20
7720;DHT22;3902;49.474;8.616;2023-07-13T16:24:39;27.30;79.00
7720;DHT22;3902;49.474;8.616;2023-07-13T16:27:04;27.20;78.90